sensor_id;sensor_type;location;lat;lon;timestamp;temperature;humidity
22069;DHT22;13887;57.196;-2.100;2022-10-16T00:01:28;9.76;79.32
22069;DHT22;13887;57.196;-2.100;2022-10-16T00:03:57;9.78;79.29
22069;DHT22;13887;57.196;-2.100;2022-10-16T00:06:25;9.78;79.17
22069;DHT22;13887;57.196;-2.100;2022-10-16T00:08:52;9.79;79.07
22069;DHT22;13887;57.196;-2.100;2022-10-16T00:11:31;9.77;79.20
22069;DHT22;13887;57.196;-2.100;2022-10-16T00:14:01;9.78;79.19
22069;DHT22;13887;57.196;-2.100;2022-10-16T00:16:29;9.78;79.23
22069;DHT22;13887;57.196;-2.100;2022-10-16T00:18:56;9.78;79.27
22069;DHT22;13887;57.196;-2.100;2022-10-16T00:21:26;9.78;79.17
22069;DHT22;13887;57.196;-2.100;2022-10-16T00:23:58;9.76;79.30
22069;DHT22;13887;57.196;-2.100;2022-10-16T00:26:27;9.77;79.14
22069;DHT22;13887;57.196;-2.100;2022-10-16T00:28:54;9.76;79.15
22069;DHT22;13887;57.196;-2.100;2022-10-16T00:31:22;9.75;79.13
22069;DHT22;13887;57.196;-2.100;2022-10-16T00:33:50;9.75;79.11
22069;DHT22;13887;57.196;-2.100;2022-10-16T00:36:20;9.74;79.03
22069;DHT22;13887;57.196;-2.100;2022-10-16T00:38:50;9.74;79.11
22069;DHT22;13887;57.196;-2.100;2022-10-16T00:41:20;9.72;79.10
22069;DHT22;13887;57.196;-2.100;2022-10-16T00:43:53;9.72;79.08
22069;DHT22;13887;57.196;-2.100;2022-10-16T00:46:23;9.70;79.21
22069;DHT22;13887;57.196;-2.100;2022-10-16T00:54:12;9.71;79.20
22069;DHT22;13887;57.196;-2.100;2022-10-16T00:56:42;9.70;79.17
22069;DHT22;13887;57.196;-2.100;2022-10-16T00:59:29;9.68;79.21
22069;DHT22;13887;57.196;-2.100;2022-10-16T01:01:56;9.67;79.21
22069;DHT22;13887;57.196;-2.100;2022-10-16T01:04:25;9.68;79.21
22069;DHT22;13887;57.196;-2.100;2022-10-16T01:10:38;9.66;79.13
22069;DHT22;13887;57.196;-2.100;2022-10-16T01:12:48;9.65;79.19
22069;DHT22;13887;57.196;-2.100;2022-10-16T01:15:27;9.68;79.14
22069;DHT22;13887;57.196;-2.100;2022-10-16T01:18:16;9.70;79.07
22069;DHT22;13887;57.196;-2.100;2022-10-16T01:20:49;9.68;79.12
22069;DHT22;13887;57.196;-2.100;2022-10-16T01:31:19;9.70;79.13
22069;DHT22;13887;57.196;-2.100;2022-10-16T01:34:00;9.69;79.02
22069;DHT22;13887;57.196;-2.100;2022-10-16T01:36:35;9.70;79.08
22069;DHT22;13887;57.196;-2.100;2022-10-16T01:39:05;9.72;79.09
22069;DHT22;13887;57.196;-2.100;2022-10-16T01:41:36;9.69;79.12
22069;DHT22;13887;57.196;-2.100;2022-10-16T01:46:45;9.67;79.24
22069;DHT22;13887;57.196;-2.100;2022-10-16T01:49:12;9.71;79.10
22069;DHT22;13887;57.196;-2.100;2022-10-16T01:51:41;9.69;79.10
22069;DHT22;13887;57.196;-2.100;2022-10-16T01:54:11;9.67;79.19
22069;DHT22;13887;57.196;-2.100;2022-10-16T01:56:41;9.67;79.27
22069;DHT22;13887;57.196;-2.100;2022-10-16T01:59:16;9.70;79.14
22069;DHT22;13887;57.196;-2.100;2022-10-16T02:01:48;9.69;79.23
22069;DHT22;13887;57.196;-2.100;2022-10-16T02:04:29;9.75;79.10
22069;DHT22;13887;57.196;-2.100;2022-10-16T02:06:56;9.70;79.21
22069;DHT22;13887;57.196;-2.100;2022-10-16T02:09:23;9.69;79.33
22069;DHT22;13887;57.196;-2.100;2022-10-16T02:11:53;9.71;79.28
22069;DHT22;13887;57.196;-2.100;2022-10-16T02:14:21;9.69;79.25
22069;DHT22;13887;57.196;-2.100;2022-10-16T02:16:51;9.71;79.27
22069;DHT22;13887;57.196;-2.100;2022-10-16T02:19:19;9.70;79.32
22069;DHT22;13887;57.196;-2.100;2022-10-16T02:24:39;9.70;79.33
22069;DHT22;13887;57.196;-2.100;2022-10-16T02:30:04;9.69;79.27
22069;DHT22;13887;57.196;-2.100;2022-10-16T02:32:37;9.66;79.46
22069;DHT22;13887;57.196;-2.100;2022-10-16T02:35:06;9.67;79.41
22069;DHT22;13887;57.196;-2.100;2022-10-16T02:37:34;9.69;79.33
22069;DHT22;13887;57.196;-2.100;2022-10-16T02:40:02;9.68;79.20
22069;DHT22;13887;57.196;-2.100;2022-10-16T02:42:36;9.68;79.24
22069;DHT22;13887;57.196;-2.100;2022-10-16T02:45:04;9.69;79.23
22069;DHT22;13887;57.196;-2.100;2022-10-16T02:47:31;9.69;79.17
22069;DHT22;13887;57.196;-2.100;2022-10-16T02:49:58;9.67;79.04
22069;DHT22;13887;57.196;-2.100;2022-10-16T02:52:25;9.67;79.08
22069;DHT22;13887;57.196;-2.100;2022-10-16T02:54:52;9.66;79.01
22069;DHT22;13887;57.196;-2.100;2022-10-16T02:57:20;9.71;78.78
22069;DHT22;13887;57.196;-2.100;2022-10-16T02:59:47;9.68;78.83
22069;DHT22;13887;57.196;-2.100;2022-10-16T03:02:14;9.69;78.75
22069;DHT22;13887;57.196;-2.100;2022-10-16T03:04:41;9.64;78.61
22069;DHT22;13887;57.196;-2.100;2022-10-16T03:07:07;9.62;78.63
22069;DHT22;13887;57.196;-2.100;2022-10-16T03:09:34;9.61;78.69
22069;DHT22;13887;57.196;-2.100;2022-10-16T03:12:01;9.60;78.54
22069;DHT22;13887;57.196;-2.100;2022-10-16T03:14:28;9.59;78.37
22069;DHT22;13887;57.196;-2.100;2022-10-16T03:16:55;9.60;78.44
22069;DHT22;13887;57.196;-2.100;2022-10-16T03:19:22;9.59;78.50
22069;DHT22;13887;57.196;-2.100;2022-10-16T03:21:49;9.57;78.35
22069;DHT22;13887;57.196;-2.100;2022-10-16T03:24:16;9.59;78.37
22069;DHT22;13887;57.196;-2.100;2022-10-16T03:26:43;9.57;78.49
22069;DHT22;13887;57.196;-2.100;2022-10-16T03:29:09;9.59;78.39
22069;DHT22;13887;57.196;-2.100;2022-10-16T03:31:36;9.56;78.39
22069;DHT22;13887;57.196;-2.100;2022-10-16T03:34:03;9.56;78.28
22069;DHT22;13887;57.196;-2.100;2022-10-16T03:36:30;9.53;78.22
22069;DHT22;13887;57.196;-2.100;2022-10-16T03:38:57;9.52;78.26
22069;DHT22;13887;57.196;-2.100;2022-10-16T03:41:24;9.51;78.35
22069;DHT22;13887;57.196;-2.100;2022-10-16T03:43:51;9.53;78.28
22069;DHT22;13887;57.196;-2.100;2022-10-16T03:46:18;9.49;78.18
22069;DHT22;13887;57.196;-2.100;2022-10-16T03:48:45;9.49;78.14
22069;DHT22;13887;57.196;-2.100;2022-10-16T03:51:12;9.47;78.05
22069;DHT22;13887;57.196;-2.100;2022-10-16T03:53:39;9.46;78.17
22069;DHT22;13887;57.196;-2.100;2022-10-16T03:56:06;9.48;78.14
22069;DHT22;13887;57.196;-2.100;2022-10-16T03:58:33;9.46;78.15
22069;DHT22;13887;57.196;-2.100;2022-10-16T04:01:00;9.48;78.00
22069;DHT22;13887;57.196;-2.100;2022-10-16T04:03:27;9.46;78.02
22069;DHT22;13887;57.196;-2.100;2022-10-16T04:05:53;9.45;78.03
22069;DHT22;13887;57.196;-2.100;2022-10-16T04:08:20;9.45;77.92
22069;DHT22;13887;57.196;-2.100;2022-10-16T04:10:47;9.42;77.98
22069;DHT22;13887;57.196;-2.100;2022-10-16T04:13:14;9.42;77.76
22069;DHT22;13887;57.196;-2.100;2022-10-16T04:15:41;9.41;77.88
22069;DHT22;13887;57.196;-2.100;2022-10-16T04:18:08;9.38;77.83
22069;DHT22;13887;57.196;-2.100;2022-10-16T04:20:35;9.37;77.69
22069;DHT22;13887;57.196;-2.100;2022-10-16T04:23:02;9.34;77.34
22069;DHT22;13887;57.196;-2.100;2022-10-16T04:25:30;9.35;77.64
22069;DHT22;13887;57.196;-2.100;2022-10-16T04:27:57;9.36;77.67
22069;DHT22;13887;57.196;-2.100;2022-10-16T04:30:25;9.35;77.34
22069;DHT22;13887;57.196;-2.100;2022-10-16T04:32:52;9.35;77.52
22069;DHT22;13887;57.196;-2.100;2022-10-16T04:35:20;9.34;77.15
22069;DHT22;13887;57.196;-2.100;2022-10-16T04:37:47;9.33;77.33
22069;DHT22;13887;57.196;-2.100;2022-10-16T04:40:14;9.29;77.27
22069;DHT22;13887;57.196;-2.100;2022-10-16T04:42:41;9.30;77.25
22069;DHT22;13887;57.196;-2.100;2022-10-16T04:45:08;9.30;77.21
22069;DHT22;13887;57.196;-2.100;2022-10-16T04:47:40;9.30;77.13
22069;DHT22;13887;57.196;-2.100;2022-10-16T04:50:07;9.30;77.27
22069;DHT22;13887;57.196;-2.100;2022-10-16T04:52:34;9.29;77.14
22069;DHT22;13887;57.196;-2.100;2022-10-16T04:55:06;9.23;77.12
22069;DHT22;13887;57.196;-2.100;2022-10-16T04:57:33;9.25;77.15
22069;DHT22;13887;57.196;-2.100;2022-10-16T05:00:00;9.25;77.19
22069;DHT22;13887;57.196;-2.100;2022-10-16T05:02:27;9.25;76.99
22069;DHT22;13887;57.196;-2.100;2022-10-16T05:04:54;9.24;77.15
22069;DHT22;13887;57.196;-2.100;2022-10-16T05:07:21;9.21;77.02
22069;DHT22;13887;57.196;-2.100;2022-10-16T05:09:48;9.22;77.02
22069;DHT22;13887;57.196;-2.100;2022-10-16T05:12:15;9.22;76.86
22069;DHT22;13887;57.196;-2.100;2022-10-16T05:14:42;9.21;76.86
22069;DHT22;13887;57.196;-2.100;2022-10-16T05:17:08;9.23;76.78
22069;DHT22;13887;57.196;-2.100;2022-10-16T05:19:35;9.21;76.83
22069;DHT22;13887;57.196;-2.100;2022-10-16T05:22:02;9.18;76.77
22069;DHT22;13887;57.196;-2.100;2022-10-16T05:24:29;9.17;76.61
22069;DHT22;13887;57.196;-2.100;2022-10-16T05:26:56;9.20;76.41
22069;DHT22;13887;57.196;-2.100;2022-10-16T05:29:23;9.16;76.41
22069;DHT22;13887;57.196;-2.100;2022-10-16T05:31:52;9.17;76.63
22069;DHT22;13887;57.196;-2.100;2022-10-16T05:34:19;9.16;76.47
22069;DHT22;13887;57.196;-2.100;2022-10-16T05:36:46;9.16;76.44
22069;DHT22;13887;57.196;-2.100;2022-10-16T05:39:14;9.15;76.39
22069;DHT22;13887;57.196;-2.100;2022-10-16T05:41:42;9.15;76.17
22069;DHT22;13887;57.196;-2.100;2022-10-16T05:44:09;9.12;76.40
22069;DHT22;13887;57.196;-2.100;2022-10-16T05:46:36;9.15;75.96
22069;DHT22;13887;57.196;-2.100;2022-10-16T05:49:03;9.11;76.14
22069;DHT22;13887;57.196;-2.100;2022-10-16T05:51:30;9.09;76.15
22069;DHT22;13887;57.196;-2.100;2022-10-16T05:53:57;9.07;76.09
22069;DHT22;13887;57.196;-2.100;2022-10-16T05:56:23;9.05;76.08
22069;DHT22;13887;57.196;-2.100;2022-10-16T05:58:50;9.07;75.76
22069;DHT22;13887;57.196;-2.100;2022-10-16T06:01:18;9.05;76.02
22069;DHT22;13887;57.196;-2.100;2022-10-16T06:03:45;9.07;76.04
22069;DHT22;13887;57.196;-2.100;2022-10-16T06:06:18;9.10;75.99
22069;DHT22;13887;57.196;-2.100;2022-10-16T06:08:47;9.07;76.03
22069;DHT22;13887;57.196;-2.100;2022-10-16T06:11:20;9.08;75.99
22069;DHT22;13887;57.196;-2.100;2022-10-16T06:13:52;9.05;76.05
22069;DHT22;13887;57.196;-2.100;2022-10-16T06:16:20;9.03;76.21
22069;DHT22;13887;57.196;-2.100;2022-10-16T06:18:47;9.06;75.99
22069;DHT22;13887;57.196;-2.100;2022-10-16T06:21:17;9.07;75.92
22069;DHT22;13887;57.196;-2.100;2022-10-16T06:23:44;9.03;76.06
22069;DHT22;13887;57.196;-2.100;2022-10-16T06:26:14;9.00;76.23
22069;DHT22;13887;57.196;-2.100;2022-10-16T06:28:41;9.03;75.99
22069;DHT22;13887;57.196;-2.100;2022-10-16T06:31:09;9.01;76.09
22069;DHT22;13887;57.196;-2.100;2022-10-16T06:33:38;9.00;76.07
22069;DHT22;13887;57.196;-2.100;2022-10-16T06:36:10;8.98;76.02
22069;DHT22;13887;57.196;-2.100;2022-10-16T06:38:38;9.00;75.88
22069;DHT22;13887;57.196;-2.100;2022-10-16T06:41:06;8.97;76.07
22069;DHT22;13887;57.196;-2.100;2022-10-16T06:43:33;8.97;76.03
22069;DHT22;13887;57.196;-2.100;2022-10-16T06:46:05;8.96;75.96
22069;DHT22;13887;57.196;-2.100;2022-10-16T06:48:34;8.95;76.00
22069;DHT22;13887;57.196;-2.100;2022-10-16T06:53:34;8.94;75.87
22069;DHT22;13887;57.196;-2.100;2022-10-16T06:56:10;8.94;75.92
22069;DHT22;13887;57.196;-2.100;2022-10-16T06:58:37;8.91;75.94
22069;DHT22;13887;57.196;-2.100;2022-10-16T07:01:05;8.96;75.51
22069;DHT22;13887;57.196;-2.100;2022-10-16T07:03:35;8.92;75.88
22069;DHT22;13887;57.196;-2.100;2022-10-16T07:06:04;8.91;75.87
22069;DHT22;13887;57.196;-2.100;2022-10-16T07:08:36;8.92;75.76
22069;DHT22;13887;57.196;-2.100;2022-10-16T07:11:15;8.91;75.76
22069;DHT22;13887;57.196;-2.100;2022-10-16T07:13:43;8.89;75.85
22069;DHT22;13887;57.196;-2.100;2022-10-16T07:16:15;8.96;75.50
22069;DHT22;13887;57.196;-2.100;2022-10-16T07:18:43;8.92;75.70
22069;DHT22;13887;57.196;-2.100;2022-10-16T07:21:16;8.91;75.57
22069;DHT22;13887;57.196;-2.100;2022-10-16T07:23:43;8.88;75.62
22069;DHT22;13887;57.196;-2.100;2022-10-16T07:26:10;8.83;75.89
22069;DHT22;13887;57.196;-2.100;2022-10-16T07:28:38;8.81;75.81
22069;DHT22;13887;57.196;-2.100;2022-10-16T07:31:09;8.78;75.91
22069;DHT22;13887;57.196;-2.100;2022-10-16T07:33:38;8.79;75.88
22069;DHT22;13887;57.196;-2.100;2022-10-16T07:36:05;8.86;75.30
22069;DHT22;13887;57.196;-2.100;2022-10-16T07:38:32;8.87;75.32
22069;DHT22;13887;57.196;-2.100;2022-10-16T07:41:04;8.82;75.59
22069;DHT22;13887;57.196;-2.100;2022-10-16T07:43:32;8.80;75.57
22069;DHT22;13887;57.196;-2.100;2022-10-16T07:46:00;8.83;75.28
22069;DHT22;13887;57.196;-2.100;2022-10-16T07:48:33;8.78;75.28
22069;DHT22;13887;57.196;-2.100;2022-10-16T07:51:03;8.76;75.67
22069;DHT22;13887;57.196;-2.100;2022-10-16T07:53:30;8.81;75.40
22069;DHT22;13887;57.196;-2.100;2022-10-16T07:56:03;8.86;75.10
22069;DHT22;13887;57.196;-2.100;2022-10-16T07:58:31;8.88;75.00
22069;DHT22;13887;57.196;-2.100;2022-10-16T08:00:58;8.80;75.28
22069;DHT22;13887;57.196;-2.100;2022-10-16T08:03:25;8.83;75.20
22069;DHT22;13887;57.196;-2.100;2022-10-16T08:05:52;8.83;75.15
22069;DHT22;13887;57.196;-2.100;2022-10-16T08:08:19;8.82;75.30
22069;DHT22;13887;57.196;-2.100;2022-10-16T08:10:46;8.78;75.46
22069;DHT22;13887;57.196;-2.100;2022-10-16T08:13:13;8.80;75.30
22069;DHT22;13887;57.196;-2.100;2022-10-16T08:15:45;8.79;75.21
22069;DHT22;13887;57.196;-2.100;2022-10-16T08:18:14;8.81;74.97
22069;DHT22;13887;57.196;-2.100;2022-10-16T08:20:42;8.80;75.25
22069;DHT22;13887;57.196;-2.100;2022-10-16T08:23:11;8.81;75.18
22069;DHT22;13887;57.196;-2.100;2022-10-16T08:25:39;8.83;75.06
22069;DHT22;13887;57.196;-2.100;2022-10-16T08:28:08;8.85;75.02
22069;DHT22;13887;57.196;-2.100;2022-10-16T08:30:36;8.83;75.02
22069;DHT22;13887;57.196;-2.100;2022-10-16T08:33:03;8.80;75.08
22069;DHT22;13887;57.196;-2.100;2022-10-16T08:35:31;8.86;74.88
22069;DHT22;13887;57.196;-2.100;2022-10-16T08:37:58;8.83;74.92
22069;DHT22;13887;57.196;-2.100;2022-10-16T08:50:39;8.81;75.00
22069;DHT22;13887;57.196;-2.100;2022-10-16T08:53:09;8.81;74.87
22069;DHT22;13887;57.196;-2.100;2022-10-16T08:55:50;8.82;74.94
22069;DHT22;13887;57.196;-2.100;2022-10-16T08:58:22;8.83;74.75
22069;DHT22;13887;57.196;-2.100;2022-10-16T09:00:58;8.86;74.91
22069;DHT22;13887;57.196;-2.100;2022-10-16T09:07:12;8.83;75.07
22069;DHT22;13887;57.196;-2.100;2022-10-16T09:12:38;8.86;74.98
22069;DHT22;13887;57.196;-2.100;2022-10-16T09:20:42;8.87;75.00
22069;DHT22;13887;57.196;-2.100;2022-10-16T09:23:18;8.89;74.97
22069;DHT22;13887;57.196;-2.100;2022-10-16T09:25:48;8.89;75.02
22069;DHT22;13887;57.196;-2.100;2022-10-16T09:28:17;8.91;74.95
22069;DHT22;13887;57.196;-2.100;2022-10-16T09:30:45;8.89;75.08
22069;DHT22;13887;57.196;-2.100;2022-10-16T09:33:13;8.89;74.98
22069;DHT22;13887;57.196;-2.100;2022-10-16T09:35:46;8.90;75.02
22069;DHT22;13887;57.196;-2.100;2022-10-16T09:38:28;8.91;75.11
22069;DHT22;13887;57.196;-2.100;2022-10-16T09:41:00;8.89;74.97
22069;DHT22;13887;57.196;-2.100;2022-10-16T09:43:48;8.90;75.01
22069;DHT22;13887;57.196;-2.100;2022-10-16T09:46:29;8.90;74.83
22069;DHT22;13887;57.196;-2.100;2022-10-16T09:51:45;8.93;74.90
22069;DHT22;13887;57.196;-2.100;2022-10-16T09:54:17;8.95;74.72
22069;DHT22;13887;57.196;-2.100;2022-10-16T09:56:45;8.94;74.88
22069;DHT22;13887;57.196;-2.100;2022-10-16T09:59:17;8.93;75.33
22069;DHT22;13887;57.196;-2.100;2022-10-16T10:04:20;8.97;75.11
22069;DHT22;13887;57.196;-2.100;2022-10-16T10:06:51;8.96;74.89
22069;DHT22;13887;57.196;-2.100;2022-10-16T10:09:27;8.98;75.15
22069;DHT22;13887;57.196;-2.100;2022-10-16T10:11:55;8.98;75.03
22069;DHT22;13887;57.196;-2.100;2022-10-16T10:17:00;9.00;75.13
22069;DHT22;13887;57.196;-2.100;2022-10-16T10:19:28;9.02;75.03
22069;DHT22;13887;57.196;-2.100;2022-10-16T10:21:58;9.06;74.98
22069;DHT22;13887;57.196;-2.100;2022-10-16T10:24:25;9.04;75.15
22069;DHT22;13887;57.196;-2.100;2022-10-16T10:27:03;9.03;75.20
22069;DHT22;13887;57.196;-2.100;2022-10-16T10:30:00;9.04;74.78
22069;DHT22;13887;57.196;-2.100;2022-10-16T10:42:08;9.11;75.09
22069;DHT22;13887;57.196;-2.100;2022-10-16T10:51:05;9.17;74.54
22069;DHT22;13887;57.196;-2.100;2022-10-16T10:59:05;9.21;74.90
22069;DHT22;13887;57.196;-2.100;2022-10-16T11:07:02;9.26;74.71
22069;DHT22;13887;57.196;-2.100;2022-10-16T11:09:47;9.26;74.97
22069;DHT22;13887;57.196;-2.100;2022-10-16T11:12:30;9.29;75.00
22069;DHT22;13887;57.196;-2.100;2022-10-16T11:15:17;9.29;75.14
22069;DHT22;13887;57.196;-2.100;2022-10-16T11:20:52;9.37;74.59
22069;DHT22;13887;57.196;-2.100;2022-10-16T11:23:28;9.37;74.71
22069;DHT22;13887;57.196;-2.100;2022-10-16T11:26:01;9.40;74.42
22069;DHT22;13887;57.196;-2.100;2022-10-16T11:28:35;9.42;74.54
22069;DHT22;13887;57.196;-2.100;2022-10-16T11:31:41;9.41;74.94
22069;DHT22;13887;57.196;-2.100;2022-10-16T11:34:34;9.46;75.18
22069;DHT22;13887;57.196;-2.100;2022-10-16T11:37:15;9.48;75.46
22069;DHT22;13887;57.196;-2.100;2022-10-16T11:39:45;9.46;75.45
22069;DHT22;13887;57.196;-2.100;2022-10-16T11:42:16;9.48;75.58
22069;DHT22;13887;57.196;-2.100;2022-10-16T11:45:00;9.49;75.36
22069;DHT22;13887;57.196;-2.100;2022-10-16T11:47:37;9.52;75.92
22069;DHT22;13887;57.196;-2.100;2022-10-16T11:50:40;9.53;75.75
22069;DHT22;13887;57.196;-2.100;2022-10-16T11:53:51;9.57;74.78
22069;DHT22;13887;57.196;-2.100;2022-10-16T11:56:21;9.62;74.10
22069;DHT22;13887;57.196;-2.100;2022-10-16T11:59:27;9.60;74.89
22069;DHT22;13887;57.196;-2.100;2022-10-16T12:07:32;9.62;75.00
22069;DHT22;13887;57.196;-2.100;2022-10-16T12:10:24;9.63;75.22
22069;DHT22;13887;57.196;-2.100;2022-10-16T12:12:53;9.65;74.49
22069;DHT22;13887;57.196;-2.100;2022-10-16T12:15:29;9.68;74.64
22069;DHT22;13887;57.196;-2.100;2022-10-16T12:18:24;9.70;75.01
22069;DHT22;13887;57.196;-2.100;2022-10-16T12:20:58;9.69;74.83
22069;DHT22;13887;57.196;-2.100;2022-10-16T12:23:53;9.74;74.99
22069;DHT22;13887;57.196;-2.100;2022-10-16T12:26:45;9.74;74.80
22069;DHT22;13887;57.196;-2.100;2022-10-16T12:29:35;9.76;73.56
22069;DHT22;13887;57.196;-2.100;2022-10-16T12:32:05;9.78;73.67
22069;DHT22;13887;57.196;-2.100;2022-10-16T12:37:15;9.79;74.39
22069;DHT22;13887;57.196;-2.100;2022-10-16T12:39:45;9.80;74.63
22069;DHT22;13887;57.196;-2.100;2022-10-16T12:42:37;9.83;74.24
22069;DHT22;13887;57.196;-2.100;2022-10-16T12:45:25;9.84;75.09
22069;DHT22;13887;57.196;-2.100;2022-10-16T12:47:54;9.82;75.32
22069;DHT22;13887;57.196;-2.100;2022-10-16T12:50:37;9.80;75.79
22069;DHT22;13887;57.196;-2.100;2022-10-16T12:53:21;9.80;76.12
22069;DHT22;13887;57.196;-2.100;2022-10-16T12:56:22;9.82;76.15
22069;DHT22;13887;57.196;-2.100;2022-10-16T13:10:28;9.88;75.41
22069;DHT22;13887;57.196;-2.100;2022-10-16T13:27:09;10.00;75.86
22069;DHT22;13887;57.196;-2.100;2022-10-16T13:29:41;10.03;74.76
22069;DHT22;13887;57.196;-2.100;2022-10-16T13:32:10;10.04;73.90
22069;DHT22;13887;57.196;-2.100;2022-10-16T13:34:46;10.06;74.96
22069;DHT22;13887;57.196;-2.100;2022-10-16T13:37:20;10.05;75.44
22069;DHT22;13887;57.196;-2.100;2022-10-16T13:39:48;10.04;74.99
22069;DHT22;13887;57.196;-2.100;2022-10-16T13:42:25;10.07;75.05
22069;DHT22;13887;57.196;-2.100;2022-10-16T13:44:55;10.08;76.12
22069;DHT22;13887;57.196;-2.100;2022-10-16T13:47:28;10.08;76.79
22069;DHT22;13887;57.196;-2.100;2022-10-16T13:50:05;10.22;79.67
22069;DHT22;13887;57.196;-2.100;2022-10-16T13:52:35;10.39;79.24
22069;DHT22;13887;57.196;-2.100;2022-10-16T13:55:15;10.51;78.40
22069;DHT22;13887;57.196;-2.100;2022-10-16T13:57:42;10.60;77.59
22069;DHT22;13887;57.196;-2.100;2022-10-16T14:00:24;10.52;77.92
22069;DHT22;13887;57.196;-2.100;2022-10-16T14:03:03;10.41;77.44
22069;DHT22;13887;57.196;-2.100;2022-10-16T14:05:30;10.34;78.07
22069;DHT22;13887;57.196;-2.100;2022-10-16T14:07:58;10.31;76.30
22069;DHT22;13887;57.196;-2.100;2022-10-16T14:10:29;10.30;76.54
22069;DHT22;13887;57.196;-2.100;2022-10-16T14:13:05;11.16;66.79
22069;DHT22;13887;57.196;-2.100;2022-10-16T14:15:34;10.81;71.18
22069;DHT22;13887;57.196;-2.100;2022-10-16T14:18:02;10.59;72.95
22069;DHT22;13887;57.196;-2.100;2022-10-16T14:20:32;10.45;74.07
22069;DHT22;13887;57.196;-2.100;2022-10-16T14:23:18;10.38;74.21
22069;DHT22;13887;57.196;-2.100;2022-10-16T14:25:46;10.35;74.84
22069;DHT22;13887;57.196;-2.100;2022-10-16T14:28:20;10.33;74.44
22069;DHT22;13887;57.196;-2.100;2022-10-16T14:30:57;10.35;75.05
22069;DHT22;13887;57.196;-2.100;2022-10-16T14:33:31;10.33;75.45
22069;DHT22;13887;57.196;-2.100;2022-10-16T14:36:10;10.31;75.57
22069;DHT22;13887;57.196;-2.100;2022-10-16T14:38:39;10.33;75.25
22069;DHT22;13887;57.196;-2.100;2022-10-16T14:41:07;10.33;76.13
22069;DHT22;13887;57.196;-2.100;2022-10-16T14:43:41;10.30;76.15
22069;DHT22;13887;57.196;-2.100;2022-10-16T14:46:22;10.30;76.66
22069;DHT22;13887;57.196;-2.100;2022-10-16T14:49:00;10.30;77.67
22069;DHT22;13887;57.196;-2.100;2022-10-16T14:51:29;10.29;77.54
22069;DHT22;13887;57.196;-2.100;2022-10-16T14:53:56;10.30;76.08
22069;DHT22;13887;57.196;-2.100;2022-10-16T14:56:30;10.30;77.04
22069;DHT22;13887;57.196;-2.100;2022-10-16T14:58:59;10.30;76.41
22069;DHT22;13887;57.196;-2.100;2022-10-16T15:01:27;10.30;77.31
22069;DHT22;13887;57.196;-2.100;2022-10-16T15:03:54;10.30;76.13
22069;DHT22;13887;57.196;-2.100;2022-10-16T15:06:21;10.31;76.53
22069;DHT22;13887;57.196;-2.100;2022-10-16T15:08:48;10.30;76.76
22069;DHT22;13887;57.196;-2.100;2022-10-16T15:11:17;10.30;76.60
22069;DHT22;13887;57.196;-2.100;2022-10-16T15:13:45;10.30;76.67
22069;DHT22;13887;57.196;-2.100;2022-10-16T15:16:14;10.31;76.28
22069;DHT22;13887;57.196;-2.100;2022-10-16T15:18:42;10.31;76.70
22069;DHT22;13887;57.196;-2.100;2022-10-16T15:21:26;10.31;76.60
22069;DHT22;13887;57.196;-2.100;2022-10-16T15:23:54;10.33;76.12
22069;DHT22;13887;57.196;-2.100;2022-10-16T15:26:27;10.31;76.20
22069;DHT22;13887;57.196;-2.100;2022-10-16T15:28:54;10.34;75.95
22069;DHT22;13887;57.196;-2.100;2022-10-16T15:31:21;10.37;76.08
22069;DHT22;13887;57.196;-2.100;2022-10-16T15:33:51;10.34;76.19
22069;DHT22;13887;57.196;-2.100;2022-10-16T15:36:31;10.33;75.88
22069;DHT22;13887;57.196;-2.100;2022-10-16T15:39:00;10.33;76.15
22069;DHT22;13887;57.196;-2.100;2022-10-16T15:41:27;10.31;76.70
22069;DHT22;13887;57.196;-2.100;2022-10-16T15:43:54;10.30;75.47
22069;DHT22;13887;57.196;-2.100;2022-10-16T15:46:23;10.34;75.66
22069;DHT22;13887;57.196;-2.100;2022-10-16T15:48:51;10.34;75.89
22069;DHT22;13887;57.196;-2.100;2022-10-16T15:51:22;10.31;75.96
22069;DHT22;13887;57.196;-2.100;2022-10-16T15:53:48;10.33;75.67
22069;DHT22;13887;57.196;-2.100;2022-10-16T15:56:17;10.31;76.22
22069;DHT22;13887;57.196;-2.100;2022-10-16T15:58:44;10.33;76.05
22069;DHT22;13887;57.196;-2.100;2022-10-16T16:01:11;10.34;76.05
22069;DHT22;13887;57.196;-2.100;2022-10-16T16:03:38;10.34;76.17
22069;DHT22;13887;57.196;-2.100;2022-10-16T16:06:11;10.34;76.62
22069;DHT22;13887;57.196;-2.100;2022-10-16T16:08:39;10.33;76.16
22069;DHT22;13887;57.196;-2.100;2022-10-16T16:11:11;10.34;76.27
22069;DHT22;13887;57.196;-2.100;2022-10-16T16:13:39;10.36;76.30
22069;DHT22;13887;57.196;-2.100;2022-10-16T16:16:09;10.34;76.15
22069;DHT22;13887;57.196;-2.100;2022-10-16T16:18:37;10.31;76.46
22069;DHT22;13887;57.196;-2.100;2022-10-16T16:21:05;10.34;76.22
22069;DHT22;13887;57.196;-2.100;2022-10-16T16:23:32;10.33;76.17
22069;DHT22;13887;57.196;-2.100;2022-10-16T16:26:23;10.30;76.40
22069;DHT22;13887;57.196;-2.100;2022-10-16T16:28:55;10.27;76.21
22069;DHT22;13887;57.196;-2.100;2022-10-16T16:31:25;10.25;76.58
22069;DHT22;13887;57.196;-2.100;2022-10-16T16:33:53;10.25;76.52
22069;DHT22;13887;57.196;-2.100;2022-10-16T16:36:20;10.24;76.46
22069;DHT22;13887;57.196;-2.100;2022-10-16T16:38:47;10.23;76.29
22069;DHT22;13887;57.196;-2.100;2022-10-16T16:41:18;10.20;74.93
22069;DHT22;13887;57.196;-2.100;2022-10-16T16:43:46;10.23;75.93
22069;DHT22;13887;57.196;-2.100;2022-10-16T16:46:14;10.19;76.22
22069;DHT22;13887;57.196;-2.100;2022-10-16T16:48:41;10.19;76.47
22069;DHT22;13887;57.196;-2.100;2022-10-16T16:51:11;10.16;76.68
22069;DHT22;13887;57.196;-2.100;2022-10-16T16:53:44;10.14;76.62
22069;DHT22;13887;57.196;-2.100;2022-10-16T16:56:12;10.13;76.41
22069;DHT22;13887;57.196;-2.100;2022-10-16T16:58:39;10.13;76.28
22069;DHT22;13887;57.196;-2.100;2022-10-16T17:01:07;10.11;76.55
22069;DHT22;13887;57.196;-2.100;2022-10-16T17:03:53;10.11;77.23
22069;DHT22;13887;57.196;-2.100;2022-10-16T17:06:22;10.10;77.13
22069;DHT22;13887;57.196;-2.100;2022-10-16T17:08:50;10.11;77.40
22069;DHT22;13887;57.196;-2.100;2022-10-16T17:11:22;10.10;76.40
22069;DHT22;13887;57.196;-2.100;2022-10-16T17:13:50;10.11;76.43
22069;DHT22;13887;57.196;-2.100;2022-10-16T17:16:33;10.09;76.34
22069;DHT22;13887;57.196;-2.100;2022-10-16T17:19:03;10.09;76.03
22069;DHT22;13887;57.196;-2.100;2022-10-16T17:21:30;10.10;75.70
22069;DHT22;13887;57.196;-2.100;2022-10-16T17:23:59;10.09;75.44
22069;DHT22;13887;57.196;-2.100;2022-10-16T17:26:27;10.10;75.50
22069;DHT22;13887;57.196;-2.100;2022-10-16T17:28:56;10.10;75.11
22069;DHT22;13887;57.196;-2.100;2022-10-16T17:31:32;10.09;75.25
22069;DHT22;13887;57.196;-2.100;2022-10-16T17:34:00;10.09;75.32
22069;DHT22;13887;57.196;-2.100;2022-10-16T17:36:30;10.09;75.11
22069;DHT22;13887;57.196;-2.100;2022-10-16T17:39:06;10.07;75.40
22069;DHT22;13887;57.196;-2.100;2022-10-16T17:41:34;10.07;75.13
22069;DHT22;13887;57.196;-2.100;2022-10-16T17:44:02;10.03;75.41
22069;DHT22;13887;57.196;-2.100;2022-10-16T17:46:30;10.05;75.55
22069;DHT22;13887;57.196;-2.100;2022-10-16T17:49:02;10.05;75.60
22069;DHT22;13887;57.196;-2.100;2022-10-16T17:51:30;10.03;75.79
22069;DHT22;13887;57.196;-2.100;2022-10-16T17:53:59;10.03;76.10